Time;durP1;ratioP1;P1;durP2;ratioP2;P2;SDS_P1;SDS_P2;PMS_P1;PMS_P2;Temp;Humidity;BMP_temperature;BMP_pressure;BME280_temperature;BME280_humidity;BME280_pressure;Samples;Min_cycle;Max_cycle;Signal;HPM_P1;HPM_P2
2023/01/27 00:00:58;;;;;;;49.50;14.75;;;-2.50;99.90;;;;;;5075665;28;20111;-84
2023/01/27 00:03:24;;;;;;;48.33;14.98;;;-2.50;99.90;;;;;;5093771;28;20038;-83
2023/01/27 00:05:50;;;;;;;62.63;18.73;;;-2.50;99.90;;;;;;5092090;28;20028;-84
2023/01/27 00:08:16;;;;;;;56.92;16.38;;;-2.50;99.90;;;;;;5091887;28;20058;-84
2023/01/27 00:10:42;;;;;;;50.40;16.48;;;-2.50;99.90;;;;;;5075317;28;20028;-83
2023/01/27 00:13:45;;;;;;;55.63;17.45;;;-2.50;99.90;;;;;;5075089;28;20035;-84
2023/01/27 00:16:04;;;;;;;56.60;16.90;;;-2.50;99.90;;;;;;5088635;28;20040;-83
2023/01/27 00:18:30;;;;;;;55.55;15.65;;;-2.50;99.90;;;;;;5075149;28;20035;-84
2023/01/27 00:26:24;;;;;;;49.83;15.20;;;-2.50;99.90;;;;;;5091603;28;20051;-83
2023/01/27 00:28:50;;;;;;;61.38;17.33;;;-2.50;99.90;;;;;;5074734;28;20442;-84
2023/01/27 00:34:07;;;;;;;57.22;15.50;;;-2.50;99.90;;;;;;5091194;28;20036;-83
2023/01/27 00:36:35;;;;;;;60.30;17.30;;;-2.50;99.90;;;;;;5074860;28;20061;-83
2023/01/27 00:39:04;;;;;;;59.78;17.65;;;-2.60;99.90;;;;;;5074831;28;20700;-83
2023/01/27 00:41:30;;;;;;;54.83;17.00;;;-2.50;99.90;;;;;;5090965;28;20103;-84
2023/01/27 00:43:55;;;;;;;57.53;17.85;;;-2.50;99.90;;;;;;5074081;28;20123;-83
2023/01/27 00:46:23;;;;;;;71.07;19.88;;;-2.40;99.90;;;;;;5071568;28;20027;-83
2023/01/27 00:49:12;;;;;;;58.10;16.23;;;-2.40;99.90;;;;;;5064045;28;20423;-83
2023/01/27 00:51:37;;;;;;;59.35;17.67;;;-2.40;99.90;;;;;;5074519;28;20024;-83
2023/01/27 00:54:04;;;;;;;66.78;18.73;;;-2.40;99.90;;;;;;5074729;28;20657;-84
2023/01/27 00:56:30;;;;;;;65.85;17.63;;;-2.40;99.90;;;;;;5074501;28;20065;-84
2023/01/27 00:58:55;;;;;;;54.85;17.08;;;-2.40;99.90;;;;;;5074495;28;20032;-84
2023/01/27 01:01:21;;;;;;;45.55;15.50;;;-2.40;99.90;;;;;;5091346;28;20016;-83
2023/01/27 01:03:47;;;;;;;57.97;19.55;;;-2.40;99.90;;;;;;5091159;28;20032;-83
2023/01/27 01:06:15;;;;;;;65.10;18.75;;;-2.40;99.90;;;;;;5073788;28;20028;-84
2023/01/27 01:08:55;;;;;;;34.40;13.95;;;-2.40;99.90;;;;;;5090956;28;20032;-84
2023/01/27 01:11:21;;;;;;;47.33;16.15;;;-2.30;99.90;;;;;;5090929;28;20024;-84
2023/01/27 01:13:48;;;;;;;44.97;16.33;;;-2.40;99.90;;;;;;5090887;28;20403;-83
2023/01/27 01:16:19;;;;;;;43.58;16.27;;;-2.40;99.90;;;;;;5073428;28;20020;-84
2023/01/27 01:18:45;;;;;;;45.95;16.65;;;-2.40;99.90;;;;;;5074405;28;20127;-83
2023/01/27 01:21:14;;;;;;;48.35;16.50;;;-2.40;99.90;;;;;;5074258;28;20055;-83
2023/01/27 01:23:41;;;;;;;43.58;15.80;;;-2.40;99.90;;;;;;5090618;28;20714;-84
2023/01/27 01:26:09;;;;;;;46.15;15.43;;;-2.40;99.90;;;;;;5091110;28;20028;-84
2023/01/27 01:28:35;;;;;;;41.00;15.13;;;-2.30;99.90;;;;;;5094152;28;20101;-84
2023/01/27 01:31:05;;;;;;;45.50;16.38;;;-2.30;99.90;;;;;;5077904;28;20055;-84
2023/01/27 01:33:31;;;;;;;41.28;15.07;;;-2.30;99.90;;;;;;5077973;28;20034;-83
2023/01/27 01:36:05;;;;;;;32.45;10.52;;;-2.30;99.90;;;;;;5078303;28;20028;-84
2023/01/27 01:38:30;;;;;;;27.10;11.30;;;-2.40;99.90;;;;;;5078167;28;20028;-84
2023/01/27 01:40:56;;;;;;;45.45;16.60;;;-2.40;99.90;;;;;;5078161;28;20365;-83
2023/01/27 01:43:22;;;;;;;38.28;13.20;;;-2.40;99.90;;;;;;5094139;28;20567;-84
2023/01/27 01:45:52;;;;;;;36.58;13.70;;;-2.40;99.90;;;;;;5078282;28;20020;-84
2023/01/27 01:48:26;;;;;;;35.05;14.30;;;-2.40;99.90;;;;;;5077507;28;20024;-84
2023/01/27 01:51:12;;;;;;;30.42;11.95;;;-2.30;99.90;;;;;;5077473;28;20057;-84
2023/01/27 01:53:44;;;;;;;37.58;13.25;;;-2.30;99.90;;;;;;5069216;28;20031;-83
2023/01/27 01:56:16;;;;;;;32.85;12.73;;;-2.30;99.90;;;;;;5094860;28;20020;-84
2023/01/27 01:58:44;;;;;;;37.15;14.40;;;-2.30;99.90;;;;;;5077847;28;20115;-84
2023/01/27 02:01:11;;;;;;;38.45;14.30;;;-2.30;99.90;;;;;;5093583;28;20078;-84
2023/01/27 02:03:40;;;;;;;39.05;12.27;;;-2.40;99.90;;;;;;5077270;28;20032;-83
2023/01/27 02:06:06;;;;;;;28.35;11.95;;;-2.40;99.90;;;;;;5093959;28;20098;-83
2023/01/27 02:08:39;;;;;;;35.15;12.10;;;-2.40;99.90;;;;;;5077677;28;20127;-84
2023/01/27 02:11:07;;;;;;;31.48;11.55;;;-2.30;99.90;;;;;;5077470;28;20028;-84
2023/01/27 02:13:32;;;;;;;33.28;13.15;;;-2.40;99.90;;;;;;5077595;28;20119;-83
2023/01/27 02:15:58;;;;;;;37.10;12.30;;;-2.40;99.90;;;;;;5077451;28;20098;-84
2023/01/27 02:18:25;;;;;;;38.20;14.55;;;-2.40;99.90;;;;;;5094793;28;20028;-84
2023/01/27 02:20:54;;;;;;;43.60;15.80;;;-2.20;99.90;;;;;;5077475;28;20111;-83
2023/01/27 02:23:38;;;;;;;36.17;15.02;;;-2.30;99.90;;;;;;5077547;28;20012;-83
2023/01/27 02:26:30;;;;;;;41.55;14.98;;;-2.20;99.90;;;;;;5075790;28;20024;-84
2023/01/27 02:28:57;;;;;;;;;;;-2.30;99.90;;;;;;5065010;28;20115;-84
2023/01/27 02:31:23;;;;;;;32.92;14.10;;;-2.40;99.90;;;;;;5094324;28;20583;-83
2023/01/27 02:33:52;;;;;;;33.58;13.52;;;-2.30;99.90;;;;;;5094018;28;20036;-84
2023/01/27 02:36:18;;;;;;;32.50;12.75;;;-2.30;99.90;;;;;;5077312;28;20123;-84
2023/01/27 02:38:51;;;;;;;33.95;13.18;;;-2.30;99.90;;;;;;5076823;28;20082;-84
2023/01/27 02:41:39;;;;;;;38.67;13.45;;;-2.30;99.90;;;;;;5076785;28;20028;-84
2023/01/27 02:44:05;;;;;;;30.02;11.82;;;-2.30;99.90;;;;;;5093199;28;20034;-84
2023/01/27 02:46:32;;;;;;;34.72;12.25;;;-2.30;99.90;;;;;;5077282;28;20012;-84
2023/01/27 02:48:58;;;;;;;32.38;12.35;;;-2.30;99.90;;;;;;5076681;28;20535;-84
2023/01/27 02:51:24;;;;;;;28.05;10.30;;;-2.30;99.90;;;;;;5076537;28;20631;-84
2023/01/27 02:53:50;;;;;;;22.58;9.90;;;-2.30;99.90;;;;;;5076226;28;20028;-84
2023/01/27 02:56:16;;;;;;;19.33;7.90;;;-2.30;99.90;;;;;;5076292;28;20078;-83
2023/01/27 02:58:42;;;;;;;17.50;7.70;;;-2.40;99.90;;;;;;5076629;28;20035;-84
2023/01/27 03:01:15;;;;;;;23.63;9.43;;;-2.40;99.90;;;;;;5077413;28;20361;-84
2023/01/27 03:03:42;;;;;;;29.55;13.10;;;-2.40;99.90;;;;;;5093208;28;20043;-84
2023/01/27 03:06:09;;;;;;;28.90;11.40;;;-2.40;99.90;;;;;;5093265;28;20016;-84
2023/01/27 03:08:35;;;;;;;36.60;14.02;;;-2.40;99.90;;;;;;5073347;28;20050;-83
2023/01/27 03:11:04;;;;;;;31.02;14.35;;;-2.40;99.90;;;;;;5074080;28;20024;-84
2023/01/27 03:13:30;;;;;;;34.25;13.85;;;-2.40;99.90;;;;;;5092888;28;20115;-84
2023/01/27 03:19:08;;;;;;;31.08;11.90;;;-2.30;99.90;;;;;;5091187;28;20052;-84
2023/01/27 03:21:34;;;;;;;25.40;12.63;;;-2.30;99.90;;;;;;5076120;28;20016;-83
2023/01/27 03:24:00;;;;;;;30.73;13.43;;;-2.40;99.90;;;;;;5075950;28;20425;-83
2023/01/27 03:26:25;;;;;;;30.75;13.05;;;-2.30;99.90;;;;;;5076234;28;20473;-84
2023/01/27 03:31:42;;;;;;;31.90;14.95;;;-2.40;99.90;;;;;;5092671;28;20686;-84
2023/01/27 03:34:09;;;;;;;31.67;13.68;;;-2.40;99.90;;;;;;5075705;28;20039;-83
2023/01/27 03:48:01;;;;;;;28.85;9.93;;;-2.40;99.90;;;;;;5092868;28;20052;-83
2023/01/27 03:50:36;;;;;;;27.38;11.38;;;-2.50;99.90;;;;;;5063233;28;20029;-84
2023/01/27 03:53:02;;;;;;;27.90;11.98;;;-2.40;99.90;;;;;;5123311;27;20021;-84
2023/01/27 03:55:32;;;;;;;30.35;11.35;;;-2.40;99.90;;;;;;5075676;28;20062;-84
2023/01/27 03:58:17;;;;;;;29.63;11.57;;;-2.40;99.90;;;;;;5075519;28;20028;-83
2023/01/27 04:00:43;;;;;;;32.42;14.45;;;-2.40;99.90;;;;;;5092110;28;20064;-84
2023/01/27 04:08:37;;;;;;;24.55;11.52;;;-2.50;99.90;;;;;;5092196;28;20040;-83
2023/01/27 04:13:48;;;;;;;24.52;10.88;;;-2.40;99.90;;;;;;5092208;28;20028;-83
2023/01/27 04:16:15;;;;;;;16.35;7.40;;;-2.50;99.90;;;;;;5075046;28;20063;-83
2023/01/27 04:18:41;;;;;;;23.85;11.23;;;-2.50;99.90;;;;;;5075023;28;20549;-84
2023/01/27 04:21:07;;;;;;;23.83;9.90;;;-2.50;99.90;;;;;;5091561;28;20032;-83
2023/01/27 04:23:32;;;;;;;28.08;12.60;;;-2.50;99.90;;;;;;5074606;28;20028;-83
2023/01/27 04:25:59;;;;;;;24.35;11.45;;;-2.50;99.90;;;;;;5074896;28;20024;-84
2023/01/27 04:28:26;;;;;;;22.52;9.82;;;-2.50;99.90;;;;;;5091174;28;20035;-84
2023/01/27 04:30:52;;;;;;;24.08;11.30;;;-2.50;99.90;;;;;;5074887;28;20031;-84
2023/01/27 04:33:17;;;;;;;24.02;10.90;;;-2.50;99.90;;;;;;5074683;28;20417;-83
2023/01/27 04:35:44;;;;;;;19.88;9.68;;;-2.50;99.90;;;;;;5074835;28;20085;-84
2023/01/27 04:38:10;;;;;;;22.05;9.02;;;-2.50;99.90;;;;;;5091413;28;20038;-84
2023/01/27 04:40:36;;;;;;;21.63;8.63;;;-2.50;99.90;;;;;;5091244;28;20391;-84
2023/01/27 04:43:02;;;;;;;18.75;8.93;;;-2.50;99.90;;;;;;5074695;28;20024;-83
2023/01/27 04:45:27;;;;;;;22.50;8.65;;;-2.50;99.90;;;;;;5091683;28;20043;-83
2023/01/27 04:47:53;;;;;;;15.18;7.22;;;-2.60;99.90;;;;;;5074562;28;20024;-83
2023/01/27 04:50:19;;;;;;;16.50;7.63;;;-2.60;99.90;;;;;;5074657;28;20031;-84
2023/01/27 04:52:45;;;;;;;21.58;9.85;;;-2.60;99.90;;;;;;5091509;28;20070;-84
2023/01/27 04:55:10;;;;;;;22.08;8.95;;;-2.60;99.90;;;;;;5072124;28;20036;-84
2023/01/27 04:57:36;;;;;;;18.42;9.32;;;-2.60;99.90;;;;;;5073972;28;20028;-83
2023/01/27 05:00:06;;;;;;;16.27;8.27;;;-2.60;99.90;;;;;;5074072;28;20023;-84
2023/01/27 05:02:31;;;;;;;20.80;9.50;;;-2.60;99.90;;;;;;5090406;28;20031;-84
2023/01/27 05:04:57;;;;;;;24.35;9.00;;;-2.60;99.90;;;;;;5092473;28;20016;-84
2023/01/27 05:07:23;;;;;;;20.92;8.40;;;-2.60;99.90;;;;;;5074079;28;20028;-84
2023/01/27 05:09:49;;;;;;;24.05;9.02;;;-2.70;99.90;;;;;;5090793;28;20036;-83
2023/01/27 05:12:15;;;;;;;24.73;9.32;;;-2.60;99.90;;;;;;5090650;28;20099;-83
2023/01/27 05:14:40;;;;;;;19.38;9.82;;;-2.60;99.90;;;;;;5090598;28;20036;-83
2023/01/27 05:17:06;;;;;;;18.27;9.10;;;-2.60;99.90;;;;;;5074015;28;20480;-84
2023/01/27 05:19:32;;;;;;;15.18;7.78;;;-2.60;99.90;;;;;;5090527;28;20561;-83
2023/01/27 05:21:57;;;;;;;16.70;7.85;;;-2.60;99.90;;;;;;5074492;28;20032;-83
2023/01/27 05:24:23;;;;;;;15.95;7.88;;;-2.70;99.90;;;;;;5090703;28;20056;-84
2023/01/27 05:26:48;;;;;;;19.10;8.02;;;-2.70;99.90;;;;;;5074113;28;20753;-84
2023/01/27 05:33:01;;;;;;;20.85;9.10;;;-2.70;99.90;;;;;;5088128;28;20039;-83
2023/01/27 05:35:26;;;;;;;18.75;8.68;;;-2.60;99.90;;;;;;5073569;28;20028;-84
2023/01/27 05:37:52;;;;;;;22.50;10.20;;;-2.60;99.90;;;;;;5092766;28;20032;-84
2023/01/27 05:40:18;;;;;;;20.38;10.70;;;-2.60;99.90;;;;;;5074022;28;20032;-83
2023/01/27 05:42:43;;;;;;;18.75;9.52;;;-2.60;99.90;;;;;;5074042;28;20162;-83
2023/01/27 05:45:09;;;;;;;17.35;7.78;;;-2.60;99.90;;;;;;5073670;28;20035;-84
2023/01/27 05:47:35;;;;;;;18.33;7.68;;;-2.60;99.90;;;;;;5092179;28;20031;-84
2023/01/27 05:50:00;;;;;;;22.48;9.45;;;-2.60;99.90;;;;;;5073978;28;20024;-84
2023/01/27 05:53:13;;;;;;;21.40;9.70;;;-2.60;99.90;;;;;;5090335;28;20024;-83
2023/01/27 05:55:42;;;;;;;16.85;7.65;;;-2.60;99.90;;;;;;5083707;28;20077;-84
2023/01/27 05:58:08;;;;;;;24.27;9.40;;;-2.60;99.90;;;;;;5073237;28;20387;-84
2023/01/27 06:00:37;;;;;;;18.80;8.60;;;-2.60;99.90;;;;;;5072847;28;20024;-84
2023/01/27 06:03:02;;;;;;;20.98;9.63;;;-2.60;99.90;;;;;;5072586;28;20081;-84
2023/01/27 06:05:28;;;;;;;23.60;10.15;;;-2.50;99.90;;;;;;5072998;28;20463;-84
2023/01/27 06:08:14;;;;;;;22.65;10.40;;;-2.60;99.90;;;;;;5073017;28;20035;-84
2023/01/27 06:10:39;;;;;;;27.38;10.88;;;-2.50;99.90;;;;;;5079609;28;20415;-84
2023/01/27 06:13:05;;;;;;;29.08;11.57;;;-2.60;99.90;;;;;;5084030;28;20024;-84
2023/01/27 06:15:31;;;;;;;27.73;12.30;;;-2.60;99.90;;;;;;5070880;28;20060;-84
2023/01/27 06:17:56;;;;;;;31.45;12.15;;;-2.50;99.90;;;;;;5065666;28;20024;-84
2023/01/27 06:20:22;;;;;;;23.75;10.95;;;-2.50;99.90;;;;;;5082108;28;20448;-84
2023/01/27 06:22:49;;;;;;;26.00;11.70;;;-2.50;99.90;;;;;;5093540;28;20024;-84
2023/01/27 06:26:02;;;;;;;30.27;14.02;;;-2.50;99.90;;;;;;5074904;28;20721;-83
2023/01/27 06:28:28;;;;;;;31.60;13.23;;;-2.50;99.90;;;;;;5083301;28;20032;-84
2023/01/27 06:30:54;;;;;;;24.02;11.05;;;-2.50;99.90;;;;;;5071512;28;20020;-84
2023/01/27 06:33:20;;;;;;;31.80;13.18;;;-2.60;99.90;;;;;;5070949;28;20483;-84
2023/01/27 06:35:49;;;;;;;27.40;11.40;;;-2.50;99.90;;;;;;5080057;28;20028;-84
2023/01/27 06:38:15;;;;;;;25.33;11.02;;;-2.50;99.90;;;;;;5069478;28;20103;-84
2023/01/27 06:40:41;;;;;;;24.23;9.52;;;-2.50;99.90;;;;;;5076209;28;20032;-84
2023/01/27 06:43:13;;;;;;;24.75;9.65;;;-2.50;99.90;;;;;;5073565;28;20032;-84
2023/01/27 06:45:56;;;;;;;27.25;11.77;;;-2.50;99.90;;;;;;5069053;28;20031;-84
2023/01/27 06:48:22;;;;;;;33.20;12.82;;;-2.50;99.90;;;;;;5073949;28;20016;-83
2023/01/27 06:50:48;;;;;;;26.05;12.02;;;-2.50;99.90;;;;;;5085205;28;20024;-84
2023/01/27 06:53:14;;;;;;;28.83;12.48;;;-2.50;99.90;;;;;;5090315;28;20107;-84
2023/01/27 06:55:44;;;;;;;24.58;11.32;;;-2.50;99.90;;;;;;5087392;28;20106;-84
2023/01/27 06:58:11;;;;;;;29.13;12.90;;;-2.50;99.90;;;;;;5069709;28;20716;-84
2023/01/27 07:00:38;;;;;;;34.25;13.32;;;-2.50;99.90;;;;;;5068500;28;20081;-84
2023/01/27 07:03:04;;;;;;;30.52;13.45;;;-2.40;99.90;;;;;;5070547;28;20028;-84
2023/01/27 07:05:31;;;;;;;32.08;14.32;;;-2.40;99.90;;;;;;5101486;28;20119;-86
2023/01/27 07:07:57;;;;;;;28.33;11.77;;;-2.40;99.90;;;;;;5068230;28;20122;-85
2023/01/27 07:10:22;;;;;;;25.02;10.32;;;-2.40;99.90;;;;;;5085910;28;20047;-85
2023/01/27 07:12:48;;;;;;;26.42;12.93;;;-2.40;99.90;;;;;;5059132;28;20028;-85
2023/01/27 07:15:14;;;;;;;26.20;12.10;;;-2.40;99.90;;;;;;5065690;28;20028;-86
2023/01/27 07:17:40;;;;;;;29.73;13.38;;;-2.40;99.90;;;;;;5065992;28;20020;-85
2023/01/27 07:20:10;;;;;;;29.45;13.15;;;-2.40;99.90;;;;;;5076491;28;20051;-85
2023/01/27 07:22:36;;;;;;;29.33;12.37;;;-2.40;99.90;;;;;;5093193;28;20472;-85
2023/01/27 07:25:03;;;;;;;33.60;16.20;;;-2.40;99.90;;;;;;5059125;28;20289;-86
2023/01/27 07:27:29;;;;;;;31.50;14.77;;;-2.40;99.90;;;;;;5061280;28;20040;-85
2023/01/27 07:29:55;;;;;;;25.90;12.32;;;-2.30;99.90;;;;;;5059210;28;20056;-86
2023/01/27 07:32:21;;;;;;;29.75;12.02;;;-2.30;99.90;;;;;;5063785;28;20032;-85
2023/01/27 07:34:46;;;;;;;27.40;13.70;;;-2.30;99.90;;;;;;5079547;28;20373;-86
2023/01/27 07:37:12;;;;;;;38.40;14.18;;;-2.20;99.90;;;;;;5076036;28;20074;-85
2023/01/27 07:39:38;;;;;;;27.65;11.75;;;-2.30;99.90;;;;;;5075827;28;20149;-85
2023/01/27 07:42:05;;;;;;;27.38;14.02;;;-2.20;99.90;;;;;;5069266;28;20029;-86
2023/01/27 07:44:31;;;;;;;26.38;12.18;;;-2.10;99.90;;;;;;5058010;28;20392;-85
2023/01/27 07:46:58;;;;;;;27.48;13.23;;;-2.20;99.90;;;;;;5060002;28;20028;-85
2023/01/27 07:49:24;;;;;;;28.35;12.10;;;-2.20;99.90;;;;;;5066417;28;20043;-86
2023/01/27 07:51:49;;;;;;;29.02;13.35;;;-2.10;99.90;;;;;;5065549;28;20025;-86
2023/01/27 07:54:15;;;;;;;28.08;13.25;;;-2.00;99.90;;;;;;5065885;28;20031;-86
2023/01/27 07:56:41;;;;;;;28.35;11.90;;;-2.00;99.90;;;;;;5055292;28;20115;-86
2023/01/27 07:59:09;;;;;;;28.05;12.07;;;-1.90;99.90;;;;;;5055517;28;20032;-85
2023/01/27 08:01:35;;;;;;;21.00;11.00;;;-1.90;99.90;;;;;;5065801;28;20020;-86
2023/01/27 08:04:01;;;;;;;23.98;9.80;;;-1.90;99.90;;;;;;5062953;28;20028;-85
2023/01/27 08:06:27;;;;;;;27.33;12.00;;;-1.90;99.90;;;;;;5085697;28;20071;-86
2023/01/27 08:08:53;;;;;;;30.27;12.00;;;-1.90;99.90;;;;;;5067958;28;20031;-86
2023/01/27 08:11:18;;;;;;;22.98;10.77;;;-1.90;99.90;;;;;;5084371;28;20016;-85
2023/01/27 08:13:44;;;;;;;23.52;10.32;;;-1.80;99.90;;;;;;5091706;28;20022;-86
2023/01/27 08:16:12;;;;;;;22.40;11.40;;;-1.80;99.90;;;;;;5065446;28;20044;-86
2023/01/27 08:18:38;;;;;;;21.55;10.05;;;-1.80;99.90;;;;;;5090242;28;20084;-86
2023/01/27 08:21:06;;;;;;;20.88;9.60;;;-1.80;99.90;;;;;;5063863;28;20029;-86
2023/01/27 08:23:32;;;;;;;17.95;8.38;;;-1.80;99.90;;;;;;5079105;28;20021;-86
2023/01/27 08:26:02;;;;;;;18.98;9.73;;;-1.70;99.90;;;;;;5058206;28;20028;-86
2023/01/27 08:28:30;;;;;;;16.67;8.63;;;-1.60;99.90;;;;;;5074374;28;20052;-86
2023/01/27 08:31:04;;;;;;;17.17;9.60;;;-1.60;99.90;;;;;;5077892;28;20027;-86
2023/01/27 08:33:30;;;;;;;15.77;8.20;;;-1.50;99.90;;;;;;5081917;28;20025;-86
2023/01/27 08:35:55;;;;;;;20.35;8.98;;;-1.40;99.90;;;;;;5086308;28;20030;-86
2023/01/27 08:38:21;;;;;;;19.17;8.88;;;-1.30;99.90;;;;;;5088735;28;20023;-86
2023/01/27 08:40:47;;;;;;;14.52;8.38;;;-1.30;99.90;;;;;;5067737;28;20056;-85
2023/01/27 08:43:15;;;;;;;18.17;8.43;;;-1.20;99.90;;;;;;5086032;28;20364;-85
2023/01/27 08:45:41;;;;;;;15.05;7.95;;;-1.30;99.90;;;;;;5067525;28;20027;-85
2023/01/27 08:48:07;;;;;;;13.82;7.30;;;-1.30;99.90;;;;;;5066619;28;20028;-86
2023/01/27 08:50:33;;;;;;;11.95;6.35;;;-1.20;99.90;;;;;;5088107;28;20660;-86
2023/01/27 08:53:00;;;;;;;12.70;6.18;;;-1.10;99.90;;;;;;5084979;28;20024;-85
2023/01/27 08:55:30;;;;;;;8.93;4.78;;;-1.00;99.90;;;;;;5070171;28;20032;-86
2023/01/27 08:57:56;;;;;;;8.52;4.90;;;-0.90;99.90;;;;;;5091286;28;20085;-86
2023/01/27 09:00:22;;;;;;;10.82;5.05;;;-1.00;99.90;;;;;;5074443;28;20032;-86
2023/01/27 09:02:57;;;;;;;9.93;5.25;;;-1.20;99.90;;;;;;5074969;28;20024;-85
2023/01/27 09:05:22;;;;;;;15.25;8.07;;;-1.10;99.90;;;;;;5090928;28;20065;-85
2023/01/27 09:07:48;;;;;;;12.45;6.57;;;-1.00;99.90;;;;;;5074673;28;20031;-85
2023/01/27 09:10:15;;;;;;;13.77;6.93;;;-0.90;99.90;;;;;;5074415;28;20388;-85
2023/01/27 09:12:41;;;;;;;17.23;6.90;;;-0.80;99.90;;;;;;5091275;28;20024;-85
2023/01/27 09:15:07;;;;;;;13.88;6.28;;;-0.70;99.90;;;;;;5092778;28;20060;-85
2023/01/27 09:17:33;;;;;;;13.50;7.63;;;-0.60;99.90;;;;;;5090975;28;20379;-84
2023/01/27 09:19:59;;;;;;;23.63;11.50;;;-0.50;99.90;;;;;;5091221;28;20032;-86
2023/01/27 09:22:24;;;;;;;15.85;7.75;;;-0.50;99.90;;;;;;5073995;28;20391;-85
2023/01/27 09:24:50;;;;;;;10.13;5.80;;;-0.30;99.90;;;;;;5073913;28;20032;-86
2023/01/27 09:27:15;;;;;;;9.30;4.82;;;-0.30;99.90;;;;;;5074838;28;20016;-85
2023/01/27 09:29:41;;;;;;;8.63;4.47;;;-0.30;99.90;;;;;;5074206;28;20051;-85
2023/01/27 09:32:08;;;;;;;9.77;4.88;;;-0.40;99.90;;;;;;5074404;28;20028;-85
2023/01/27 09:34:34;;;;;;;12.35;5.50;;;-0.40;99.90;;;;;;5090421;28;20751;-85
2023/01/27 09:37:07;;;;;;;8.35;5.35;;;-0.30;99.90;;;;;;5074488;28;20024;-86
2023/01/27 09:39:36;;;;;;;8.35;5.00;;;-0.20;99.90;;;;;;5073168;28;20515;-86
2023/01/27 09:42:26;;;;;;;22.38;10.90;;;-0.10;99.90;;;;;;5074151;28;20056;-86
2023/01/27 09:45:16;;;;;;;12.02;6.15;;;0.00;99.90;;;;;;5073671;28;20086;-86
2023/01/27 09:47:59;;;;;;;12.48;6.65;;;0.20;99.90;;;;;;5091137;28;20056;-85
2023/01/27 09:50:30;;;;;;;10.15;6.00;;;0.30;99.90;;;;;;5077646;28;20391;-85
2023/01/27 09:53:17;;;;;;;9.52;4.75;;;0.10;99.90;;;;;;5077570;28;20031;-86
2023/01/27 09:56:00;;;;;;;11.10;6.28;;;0.10;99.90;;;;;;5094389;28;20051;-86
2023/01/27 09:58:35;;;;;;;11.15;5.55;;;-0.10;99.90;;;;;;5072435;28;20211;-85
2023/01/27 10:01:45;;;;;;;11.23;6.68;;;0.00;99.90;;;;;;5077476;28;20024;-85
2023/01/27 10:04:51;;;;;;;10.07;5.43;;;0.10;99.90;;;;;;5093820;28;20035;-86
2023/01/27 10:07:52;;;;;;;13.40;6.10;;;0.20;99.90;;;;;;5075133;28;20467;-86
2023/01/27 10:10:43;;;;;;;25.58;7.43;;;0.50;99.90;;;;;;5092228;28;20110;-85
2023/01/27 10:13:45;;;;;;;16.65;7.03;;;0.90;99.90;;;;;;5106520;28;20032;-85
2023/01/27 10:16:32;;;;;;;7.93;4.43;;;1.30;99.90;;;;;;5077480;28;20043;-85
2023/01/27 10:19:08;;;;;;;5.80;3.85;;;1.50;99.90;;;;;;5077365;28;20111;-85
2023/01/27 10:22:11;;;;;;;8.27;4.20;;;1.50;99.90;;;;;;5077251;28;20040;-86
2023/01/27 10:25:08;;;;;;;8.20;4.47;;;1.40;99.90;;;;;;5076069;28;20085;-85
2023/01/27 10:27:44;;;;;;;6.97;4.05;;;1.50;99.90;;;;;;5094001;28;20028;-85
2023/01/27 10:30:48;;;;;;;9.20;4.30;;;1.40;99.90;;;;;;5077326;28;20021;-85
2023/01/27 10:33:24;;;;;;;9.88;5.20;;;1.30;99.90;;;;;;4999774;28;20093;-85
2023/01/27 10:35:52;;;;;;;27.92;10.60;;;1.20;99.90;;;;;;5061136;28;20052;-86
2023/01/27 10:38:50;;;;;;;9.90;5.35;;;1.20;99.90;;;;;;5075430;28;20030;-85
2023/01/27 10:41:53;;;;;;;9.00;5.15;;;1.10;99.90;;;;;;5087369;28;20413;-85
2023/01/27 10:44:39;;;;;;;10.90;5.40;;;1.10;99.90;;;;;;5076759;28;20055;-85
2023/01/27 10:47:37;;;;;;;8.35;4.75;;;0.90;99.90;;;;;;5075364;28;20024;-85
2023/01/27 10:50:16;;;;;;;10.77;5.82;;;0.90;99.90;;;;;;5042761;28;20036;-85
2023/01/27 10:52:47;;;;;;;10.68;5.72;;;1.00;99.90;;;;;;5084745;28;20025;-84
2023/01/27 10:55:25;;;;;;;8.48;4.82;;;1.20;99.90;;;;;;5091570;28;20032;-85
2023/01/27 10:57:59;;;;;;;34.30;10.80;;;1.30;99.90;;;;;;5082793;28;20094;-86
2023/01/27 11:00:30;;;;;;;21.25;7.10;;;1.60;99.90;;;;;;5070788;28;20065;-85
2023/01/27 11:03:20;;;;;;;11.23;6.22;;;1.60;99.90;;;;;;5071860;28;20467;-86
2023/01/27 11:06:01;;;;;;;11.55;5.05;;;1.60;99.90;;;;;;5062821;28;20093;-86
2023/01/27 11:08:29;;;;;;;;;;;1.60;99.90;;;;;;5080820;28;20090;-84
2023/01/27 11:13:45;;;;;;;17.25;5.03;;;2.00;99.90;;;;;;5081724;28;20039;-85
2023/01/27 11:16:18;;;;;;;9.15;4.95;;;1.80;99.90;;;;;;5086797;28;20022;-85
2023/01/27 11:18:48;;;;;;;8.27;4.97;;;1.70;99.90;;;;;;5072569;28;20028;-85
2023/01/27 11:21:20;;;;;;;9.43;5.30;;;1.60;99.90;;;;;;5084252;28;20026;-86
2023/01/27 11:23:50;;;;;;;10.00;5.28;;;1.50;99.90;;;;;;5082028;28;20024;-85
2023/01/27 11:26:33;;;;;;;30.58;6.13;;;1.50;99.90;;;;;;5075086;28;20015;-86
2023/01/27 11:29:16;;;;;;;9.90;5.38;;;1.50;99.90;;;;;;5067587;28;20083;-85
2023/01/27 11:32:09;;;;;;;18.75;5.82;;;1.40;99.90;;;;;;5126038;27;20430;-86
2023/01/27 11:34:56;;;;;;;9.43;5.40;;;1.60;99.90;;;;;;5073502;28;20035;-85
2023/01/27 11:37:34;;;;;;;9.35;4.60;;;1.50;99.90;;;;;;5092707;28;20078;-86
2023/01/27 11:40:00;;;;;;;8.50;5.18;;;1.40;99.90;;;;;;5092166;28;20028;-86
2023/01/27 11:42:32;;;;;;;13.07;6.00;;;1.40;99.90;;;;;;5091992;28;20035;-85
2023/01/27 11:44:59;;;;;;;8.27;4.82;;;1.30;99.90;;;;;;5076097;28;20040;-85
2023/01/27 11:47:33;;;;;;;19.52;6.18;;;1.20;99.90;;;;;;5072382;28;20024;-85
2023/01/27 11:50:00;;;;;;;11.98;5.32;;;1.20;99.90;;;;;;5092823;28;20058;-85
2023/01/27 11:52:27;;;;;;;17.65;6.00;;;1.20;99.90;;;;;;5076175;28;20058;-86
2023/01/27 11:55:12;;;;;;;9.00;4.55;;;1.50;99.90;;;;;;5092966;28;20078;-86
2023/01/27 11:57:41;;;;;;;17.70;4.45;;;1.70;99.90;;;;;;5075814;28;20180;-86
2023/01/27 12:00:28;;;;;;;8.02;5.10;;;1.70;99.90;;;;;;5093006;28;20032;-85
2023/01/27 12:03:12;;;;;;;18.63;6.00;;;1.40;99.90;;;;;;5075355;28;20145;-85
2023/01/27 12:05:44;;;;;;;10.60;4.45;;;1.30;99.90;;;;;;5091788;28;20058;-86
2023/01/27 12:08:31;;;;;;;14.30;6.88;;;1.20;99.90;;;;;;5066481;28;20064;-86
2023/01/27 12:11:25;;;;;;;22.20;5.65;;;1.50;99.90;;;;;;5074622;28;20771;-85
2023/01/27 12:13:57;;;;;;;13.20;4.70;;;1.70;99.90;;;;;;5092022;28;20029;-86
2023/01/27 12:16:34;;;;;;;10.30;3.88;;;1.50;99.90;;;;;;5092790;28;20051;-86
2023/01/27 12:19:05;;;;;;;13.98;4.30;;;1.10;99.90;;;;;;5075383;28;20024;-85
2023/01/27 12:21:46;;;;;;;16.25;4.97;;;1.00;99.90;;;;;;5075367;28;20035;-85
2023/01/27 12:24:30;;;;;;;24.52;4.88;;;1.00;99.90;;;;;;5075144;28;20422;-86
2023/01/27 12:26:57;;;;;;;11.75;5.57;;;1.20;99.90;;;;;;5074950;28;20024;-86
2023/01/27 12:29:39;;;;;;;12.95;4.85;;;1.60;99.90;;;;;;5074538;28;20430;-85
2023/01/27 12:32:31;;;;;;;8.82;4.78;;;1.50;99.90;;;;;;5091840;28;20477;-85
2023/01/27 12:34:57;;;;;;;9.50;4.68;;;1.60;99.90;;;;;;5078916;28;20047;-85
2023/01/27 12:37:28;;;;;;;10.68;4.95;;;1.50;99.90;;;;;;5074930;28;20620;-85
2023/01/27 12:39:59;;;;;;;12.02;4.47;;;1.40;99.90;;;;;;5074847;28;20042;-85
2023/01/27 12:42:46;;;;;;;77.03;12.05;;;1.30;99.90;;;;;;5093085;28;20044;-86
2023/01/27 12:45:20;;;;;;;16.08;4.25;;;1.40;99.90;;;;;;5074555;28;20028;-86
2023/01/27 12:48:16;;;;;;;12.43;5.53;;;1.30;99.90;;;;;;5091510;28;20050;-86
2023/01/27 12:50:54;;;;;;;7.78;3.88;;;1.30;99.90;;;;;;5079592;28;20387;-85
2023/01/27 12:53:21;;;;;;;9.38;4.38;;;0.90;99.90;;;;;;5084247;28;20036;-86
2023/01/27 12:55:56;;;;;;;8.65;3.78;;;1.00;99.90;;;;;;5082354;28;20792;-85
2023/01/27 12:58:45;;;;;;;9.20;5.35;;;0.80;99.90;;;;;;5086094;28;20028;-85
2023/01/27 13:01:27;;;;;;;9.48;5.43;;;0.70;99.90;;;;;;5072853;28;20028;-85
2023/01/27 13:03:59;;;;;;;11.10;5.45;;;0.80;99.90;;;;;;5083119;28;20024;-86
2023/01/27 13:06:47;;;;;;;10.25;4.95;;;1.00;99.90;;;;;;5072379;28;20661;-86
2023/01/27 13:09:22;;;;;;;16.88;6.35;;;1.40;99.90;;;;;;5070543;28;20028;-85
2023/01/27 13:11:48;;;;;;;14.88;6.32;;;1.50;99.90;;;;;;5075130;28;20034;-86
2023/01/27 13:14:16;;;;;;;13.77;6.00;;;1.50;99.90;;;;;;5077423;28;20032;-86
2023/01/27 13:16:54;;;;;;;11.13;4.80;;;1.40;99.90;;;;;;5087778;28;20032;-85
2023/01/27 13:19:21;;;;;;;15.82;6.47;;;1.30;99.90;;;;;;5077651;28;20086;-85
2023/01/27 13:21:52;;;;;;;16.55;5.05;;;1.30;99.90;;;;;;5069071;28;20492;-85
2023/01/27 13:24:34;;;;;;;26.60;8.25;;;1.10;99.90;;;;;;5085620;28;20110;-86
2023/01/27 13:27:09;;;;;;;11.32;5.57;;;1.40;99.90;;;;;;5069613;28;20055;-86
2023/01/27 13:29:38;;;;;;;19.02;5.93;;;1.70;99.90;;;;;;5114742;27;20031;-85
2023/01/27 13:32:08;;;;;;;9.00;5.60;;;1.90;99.90;;;;;;5063870;28;20024;-85
2023/01/27 13:35:26;;;;;;;26.52;6.65;;;1.90;99.90;;;;;;5073139;28;20024;-85
2023/01/27 13:38:14;;;;;;;10.80;4.63;;;1.90;99.90;;;;;;5077578;28;20036;-85